Time;durP1;ratioP1;P1;durP2;ratioP2;P2;SDS_P1;SDS_P2;PMS_P1;PMS_P2;Temp;Humidity;BMP_temperature;BMP_pressure;BME280_temperature;BME280_humidity;BME280_pressure;Samples;Min_cycle;Max_cycle;Signal;HPM_P1;HPM_P2
2024/01/19 00:01:25;;;;;;;5.18;0.95;;;;;;;;;;5126451;27;20130;-63
2024/01/19 00:03:51;;;;;;;1.70;0.85;;;;;;;;;;5110671;28;20623;-63
2024/01/19 00:06:18;;;;;;;0.93;0.63;;;;;;;;;;5123805;27;20060;-62
2024/01/19 00:08:44;;;;;;;3.25;1.00;;;;;;;;;;5128950;27;20150;-63
2024/01/19 00:11:18;;;;;;;2.22;0.70;;;;;;;;;;5104007;27;20119;-62
2024/01/19 00:13:44;;;;;;;1.77;0.88;;;;;;;;;;5128350;27;20039;-63
2024/01/19 00:16:10;;;;;;;1.60;0.63;;;;;;;;;;5128830;27;20583;-62
2024/01/19 00:18:36;;;;;;;0.73;0.60;;;;;;;;;;5131625;27;20626;-63
2024/01/19 00:21:03;;;;;;;2.90;0.75;;;;;;;;;;5129655;27;20046;-61
2024/01/19 00:23:29;;;;;;;1.25;0.60;;;;;;;;;;5132173;27;20043;-61
2024/01/19 00:25:55;;;;;;;5.30;0.80;;;;;;;;;;5127492;27;20498;-63
2024/01/19 00:28:21;;;;;;;3.20;0.90;;;;;;;;;;5130395;27;20179;-63
2024/01/19 00:30:47;;;;;;;2.33;0.90;;;;;;;;;;5128975;27;20567;-63
2024/01/19 00:33:14;;;;;;;3.78;0.70;;;;;;;;;;5129849;27;20130;-63
2024/01/19 00:35:40;;;;;;;3.22;0.90;;;;;;;;;;5117988;27;20034;-63
2024/01/19 00:38:06;;;;;;;4.80;1.05;;;;;;;;;;5130231;27;20046;-63
2024/01/19 00:40:32;;;;;;;3.20;0.95;;;;;;;;;;5104350;27;20524;-63
2024/01/19 00:42:58;;;;;;;3.72;0.93;;;;;;;;;;5131327;27;20514;-63
2024/01/19 00:45:24;;;;;;;5.18;1.00;;;;;;;;;;5128940;27;20038;-63
2024/01/19 00:47:56;;;;;;;3.40;0.80;;;;;;;;;;5127088;27;20390;-63
2024/01/19 00:50:22;;;;;;;3.10;0.85;;;;;;;;;;5120176;27;20043;-63
2024/01/19 00:52:49;;;;;;;2.67;1.30;;;;;;;;;;5121524;27;20443;-63
2024/01/19 00:55:15;;;;;;;1.20;0.52;;;;;;;;;;5119348;27;20122;-63
2024/01/19 00:57:41;;;;;;;1.98;0.90;;;;;;;;;;5103450;28;20550;-63
2024/01/19 01:00:08;;;;;;;1.88;0.60;;;;;;;;;;5101055;27;20027;-63
2024/01/19 01:02:34;;;;;;;1.50;0.70;;;;;;;;;;5131395;27;20114;-63
2024/01/19 01:05:01;;;;;;;0.52;0.50;;;;;;;;;;5108242;27;20737;-63
2024/01/19 01:07:27;;;;;;;1.45;0.80;;;;;;;;;;5126062;27;20122;-63
2024/01/19 01:09:53;;;;;;;2.08;0.77;;;;;;;;;;5129887;27;20035;-63
2024/01/19 01:12:19;;;;;;;1.73;0.88;;;;;;;;;;5128904;27;20095;-63
2024/01/19 01:14:47;;;;;;;3.50;1.80;;;;;;;;;;5126137;27;20067;-63
2024/01/19 01:17:13;;;;;;;6.40;1.08;;;;;;;;;;5126625;27;20058;-66
2024/01/19 01:19:39;;;;;;;2.58;1.13;;;;;;;;;;5131042;27;20070;-63
2024/01/19 01:22:05;;;;;;;2.38;0.80;;;;;;;;;;5111223;27;20078;-63
2024/01/19 01:24:32;;;;;;;1.05;0.70;;;;;;;;;;5113516;27;20036;-63
2024/01/19 01:26:58;;;;;;;1.77;0.90;;;;;;;;;;5116838;27;20035;-63
2024/01/19 01:29:24;;;;;;;0.88;0.80;;;;;;;;;;5119649;27;20122;-63
2024/01/19 01:31:51;;;;;;;2.67;0.93;;;;;;;;;;5126536;27;20089;-63
2024/01/19 01:34:17;;;;;;;1.85;0.70;;;;;;;;;;5113773;27;20795;-63
2024/01/19 01:36:43;;;;;;;1.65;0.98;;;;;;;;;;5123826;27;20031;-63
2024/01/19 01:39:12;;;;;;;1.55;0.80;;;;;;;;;;5122192;27;20040;-63
2024/01/19 01:41:41;;;;;;;0.98;0.70;;;;;;;;;;5116629;27;20118;-63
2024/01/19 01:44:07;;;;;;;5.10;1.30;;;;;;;;;;5095104;28;20046;-63
2024/01/19 01:46:34;;;;;;;2.35;1.20;;;;;;;;;;5112658;27;20071;-63
2024/01/19 01:49:00;;;;;;;2.35;1.00;;;;;;;;;;5126363;27;20405;-63
2024/01/19 01:51:26;;;;;;;1.73;1.02;;;;;;;;;;5118685;27;20047;-63
2024/01/19 01:53:52;;;;;;;3.83;1.10;;;;;;;;;;5120725;27;20031;-62
2024/01/19 01:56:19;;;;;;;2.50;1.15;;;;;;;;;;5112359;27;20057;-63
2024/01/19 01:58:45;;;;;;;1.73;1.20;;;;;;;;;;5124502;27;20035;-63
2024/01/19 02:01:11;;;;;;;2.10;1.10;;;;;;;;;;5128389;27;20122;-63
2024/01/19 02:03:37;;;;;;;9.02;1.38;;;;;;;;;;5122533;27;20107;-63
2024/01/19 02:06:04;;;;;;;3.92;1.25;;;;;;;;;;5129107;27;20054;-63
2024/01/19 02:08:30;;;;;;;1.50;0.70;;;;;;;;;;5109077;27;20046;-63
2024/01/19 02:10:56;;;;;;;2.88;1.20;;;;;;;;;;5128852;27;20511;-63
2024/01/19 02:13:23;;;;;;;2.75;1.27;;;;;;;;;;5123737;27;20512;-62
2024/01/19 02:15:49;;;;;;;1.08;0.73;;;;;;;;;;5122934;27;20177;-63
2024/01/19 02:18:15;;;;;;;2.85;0.80;;;;;;;;;;5098390;28;20050;-63
2024/01/19 02:20:41;;;;;;;5.88;1.45;;;;;;;;;;5121739;27;20381;-63
2024/01/19 02:23:11;;;;;;;5.40;1.63;;;;;;;;;;5123859;27;20038;-63
2024/01/19 02:25:37;;;;;;;1.45;0.80;;;;;;;;;;5122967;27;20031;-63
2024/01/19 02:28:03;;;;;;;3.05;1.38;;;;;;;;;;5103490;27;20050;-63
2024/01/19 02:30:30;;;;;;;3.40;1.00;;;;;;;;;;5109966;27;20075;-63
2024/01/19 02:32:58;;;;;;;2.42;0.82;;;;;;;;;;5123989;27;20058;-63
2024/01/19 02:35:24;;;;;;;4.20;1.75;;;;;;;;;;5122254;27;20444;-63
2024/01/19 02:37:50;;;;;;;2.55;1.27;;;;;;;;;;5124283;27;20042;-63
2024/01/19 02:40:16;;;;;;;2.75;1.25;;;;;;;;;;5119698;27;20388;-63
2024/01/19 02:42:42;;;;;;;1.70;0.82;;;;;;;;;;5117512;27;20054;-63
2024/01/19 02:45:08;;;;;;;4.03;1.17;;;;;;;;;;5120192;27;20063;-63
2024/01/19 02:47:34;;;;;;;3.50;1.20;;;;;;;;;;5117004;27;20047;-63
2024/01/19 02:50:01;;;;;;;3.20;1.00;;;;;;;;;;5121632;27;20039;-63
2024/01/19 02:52:27;;;;;;;5.15;1.25;;;;;;;;;;5127268;27;20496;-63
2024/01/19 02:54:53;;;;;;;2.08;0.70;;;;;;;;;;5123290;27;20035;-63
2024/01/19 02:57:19;;;;;;;2.33;1.08;;;;;;;;;;5100212;27;20455;-63
2024/01/19 02:59:45;;;;;;;3.10;1.17;;;;;;;;;;5123459;27;20031;-63
2024/01/19 03:02:12;;;;;;;0.95;0.80;;;;;;;;;;5108488;28;20198;-63
2024/01/19 03:04:38;;;;;;;1.65;0.98;;;;;;;;;;5126988;27;20513;-63
2024/01/19 03:07:05;;;;;;;5.32;1.05;;;;;;;;;;5126709;27;20502;-63
2024/01/19 03:09:31;;;;;;;5.20;1.23;;;;;;;;;;5126763;27;20032;-63
2024/01/19 03:11:57;;;;;;;2.63;0.60;;;;;;;;;;5109783;28;20062;-63
2024/01/19 03:14:23;;;;;;;1.70;0.80;;;;;;;;;;5127350;28;20415;-63
2024/01/19 03:16:51;;;;;;;2.80;0.90;;;;;;;;;;5125244;28;20574;-64
2024/01/19 03:19:17;;;;;;;6.00;0.98;;;;;;;;;;5110084;28;20133;-63
2024/01/19 03:21:43;;;;;;;1.77;0.88;;;;;;;;;;5124537;28;20499;-63
2024/01/19 03:24:09;;;;;;;1.73;0.80;;;;;;;;;;5127798;28;20045;-63
2024/01/19 03:26:36;;;;;;;3.88;0.70;;;;;;;;;;5124709;28;20066;-63
2024/01/19 03:29:03;;;;;;;4.90;1.30;;;;;;;;;;5119737;28;20127;-63
2024/01/19 03:31:29;;;;;;;0.85;0.60;;;;;;;;;;5127743;27;20087;-63
2024/01/19 03:33:55;;;;;;;1.23;0.63;;;;;;;;;;5131331;27;20194;-62
2024/01/19 03:36:21;;;;;;;1.80;1.30;;;;;;;;;;5130531;27;20139;-63
2024/01/19 03:38:47;;;;;;;3.92;1.35;;;;;;;;;;5112095;27;20043;-63
2024/01/19 03:41:13;;;;;;;3.70;1.00;;;;;;;;;;5112447;27;20087;-63
2024/01/19 03:43:41;;;;;;;4.10;1.42;;;;;;;;;;5132160;27;20091;-63
2024/01/19 03:46:07;;;;;;;3.45;1.30;;;;;;;;;;5132140;27;20103;-63
2024/01/19 03:48:33;;;;;;;3.25;1.23;;;;;;;;;;5121353;27;20084;-63
2024/01/19 03:51:00;;;;;;;4.82;0.98;;;;;;;;;;5129824;27;20576;-63
2024/01/19 03:53:26;;;;;;;3.22;1.42;;;;;;;;;;5128459;27;20031;-63
2024/01/19 03:55:52;;;;;;;2.95;1.23;;;;;;;;;;5129302;27;20527;-63
2024/01/19 03:58:18;;;;;;;4.03;1.75;;;;;;;;;;5128746;27;20130;-63
2024/01/19 04:00:44;;;;;;;6.10;1.30;;;;;;;;;;5114545;27;20120;-63
2024/01/19 04:03:10;;;;;;;6.45;1.50;;;;;;;;;;5128259;27;20036;-63
2024/01/19 04:05:36;;;;;;;4.80;1.90;;;;;;;;;;5120555;27;20039;-62
2024/01/19 04:08:02;;;;;;;4.60;1.63;;;;;;;;;;5131628;27;20262;-63
2024/01/19 04:10:29;;;;;;;5.18;1.42;;;;;;;;;;5121109;27;20047;-62
2024/01/19 04:12:55;;;;;;;3.05;1.27;;;;;;;;;;5129135;27;20046;-63
2024/01/19 04:15:21;;;;;;;4.68;1.20;;;;;;;;;;5113506;27;20399;-63
2024/01/19 04:17:47;;;;;;;3.55;1.70;;;;;;;;;;5126683;27;20035;-63
2024/01/19 04:20:13;;;;;;;4.97;1.05;;;;;;;;;;5104134;27;20054;-63
2024/01/19 04:22:40;;;;;;;4.00;1.40;;;;;;;;;;5118721;27;20035;-63
2024/01/19 04:25:07;;;;;;;4.75;1.70;;;;;;;;;;5122156;27;20146;-63
2024/01/19 04:27:33;;;;;;;3.50;1.40;;;;;;;;;;5098339;27;20518;-63
2024/01/19 04:29:59;;;;;;;3.88;1.27;;;;;;;;;;5123312;27;20031;-63
2024/01/19 04:32:25;;;;;;;4.03;1.10;;;;;;;;;;5117796;27;20127;-63
2024/01/19 04:34:51;;;;;;;3.83;1.45;;;;;;;;;;5090538;27;20572;-63
2024/01/19 04:37:17;;;;;;;4.10;1.60;;;;;;;;;;5123478;27;20036;-63
2024/01/19 04:39:43;;;;;;;5.45;2.13;;;;;;;;;;5132174;27;20027;-63
2024/01/19 04:42:11;;;;;;;4.30;1.58;;;;;;;;;;5129862;27;20077;-63
2024/01/19 04:44:37;;;;;;;11.75;2.35;;;;;;;;;;5120327;27;20046;-63
2024/01/19 04:47:04;;;;;;;7.45;1.48;;;;;;;;;;5119831;27;20487;-63
2024/01/19 04:49:30;;;;;;;3.05;0.88;;;;;;;;;;5121152;27;20430;-63
2024/01/19 04:51:56;;;;;;;5.72;1.30;;;;;;;;;;5117430;27;20036;-65
2024/01/19 04:54:22;;;;;;;5.18;2.13;;;;;;;;;;5118352;27;20031;-64
2024/01/19 04:56:48;;;;;;;5.70;1.10;;;;;;;;;;5126418;27;20046;-64
2024/01/19 04:59:15;;;;;;;3.97;1.45;;;;;;;;;;5120733;27;20422;-65
2024/01/19 05:01:41;;;;;;;4.60;1.58;;;;;;;;;;5129100;27;20050;-64
2024/01/19 05:04:07;;;;;;;5.25;1.48;;;;;;;;;;5130328;27;20440;-64
2024/01/19 05:06:33;;;;;;;5.97;1.35;;;;;;;;;;5128422;27;20126;-65
2024/01/19 05:08:59;;;;;;;4.93;1.08;;;;;;;;;;5130842;27;20514;-64
2024/01/19 05:11:25;;;;;;;3.50;1.20;;;;;;;;;;5128553;27;20165;-64
2024/01/19 05:13:52;;;;;;;6.30;1.83;;;;;;;;;;5112116;27;20046;-64
2024/01/19 05:16:18;;;;;;;5.13;1.25;;;;;;;;;;5130333;27;20037;-64
2024/01/19 05:18:44;;;;;;;3.42;1.13;;;;;;;;;;5096024;27;20126;-64
2024/01/19 05:21:10;;;;;;;6.05;1.48;;;;;;;;;;5124833;27;20067;-64
2024/01/19 05:23:36;;;;;;;5.22;1.38;;;;;;;;;;5126585;27;20035;-64
2024/01/19 05:26:04;;;;;;;2.63;1.73;;;;;;;;;;5125085;27;20071;-64
2024/01/19 05:28:32;;;;;;;1.83;0.93;;;;;;;;;;5105467;27;20039;-64
2024/01/19 05:30:58;;;;;;;3.33;1.00;;;;;;;;;;5128115;27;20097;-64
2024/01/19 05:33:24;;;;;;;7.63;1.98;;;;;;;;;;5127196;27;20054;-64
2024/01/19 05:35:51;;;;;;;3.50;1.05;;;;;;;;;;5127226;27;20110;-64
2024/01/19 05:38:17;;;;;;;3.40;1.48;;;;;;;;;;5127498;27;20034;-64
2024/01/19 05:40:43;;;;;;;4.78;1.20;;;;;;;;;;5128122;27;20114;-64
2024/01/19 05:43:09;;;;;;;8.05;2.38;;;;;;;;;;5118595;27;20035;-64
2024/01/19 05:45:36;;;;;;;3.72;1.45;;;;;;;;;;5110403;27;20076;-64
2024/01/19 05:48:02;;;;;;;8.80;1.42;;;;;;;;;;5107471;27;20051;-64
2024/01/19 05:50:28;;;;;;;9.20;1.20;;;;;;;;;;5119725;27;20078;-64
2024/01/19 05:52:56;;;;;;;7.72;1.75;;;;;;;;;;5114313;27;20036;-64
2024/01/19 05:55:23;;;;;;;2.72;1.75;;;;;;;;;;5116297;27;20035;-64
2024/01/19 05:57:49;;;;;;;2.47;1.38;;;;;;;;;;5119919;27;20088;-64
2024/01/19 06:00:15;;;;;;;4.50;1.30;;;;;;;;;;5121196;27;20680;-64
2024/01/19 06:02:41;;;;;;;2.65;1.02;;;;;;;;;;5112512;27;20036;-65
2024/01/19 06:05:07;;;;;;;8.13;2.38;;;;;;;;;;5092514;27;20078;-64
2024/01/19 06:07:34;;;;;;;6.45;1.58;;;;;;;;;;5120250;27;20681;-64
2024/01/19 06:10:00;;;;;;;2.28;1.00;;;;;;;;;;5101415;27;20047;-64
2024/01/19 06:12:26;;;;;;;3.38;1.15;;;;;;;;;;5111285;27;20050;-64
2024/01/19 06:14:53;;;;;;;2.92;2.00;;;;;;;;;;5121412;27;20236;-64
2024/01/19 06:17:19;;;;;;;1.90;1.20;;;;;;;;;;5120700;27;20039;-64
2024/01/19 06:19:45;;;;;;;3.25;1.50;;;;;;;;;;5100267;27;20040;-64
2024/01/19 06:22:11;;;;;;;5.00;1.27;;;;;;;;;;5100725;27;20044;-64
2024/01/19 06:24:38;;;;;;;2.25;0.95;;;;;;;;;;5107992;27;20091;-64
2024/01/19 06:27:04;;;;;;;5.20;1.33;;;;;;;;;;5104912;27;20357;-63
2024/01/19 06:29:30;;;;;;;2.72;1.20;;;;;;;;;;5124342;27;20039;-64
2024/01/19 06:31:57;;;;;;;1.75;1.13;;;;;;;;;;5120971;27;20046;-64
2024/01/19 06:34:23;;;;;;;4.68;1.55;;;;;;;;;;5118113;27;20120;-64
2024/01/19 06:36:49;;;;;;;5.00;2.05;;;;;;;;;;5113257;27;20032;-64
2024/01/19 06:39:16;;;;;;;2.20;1.10;;;;;;;;;;5120448;27;20046;-64
2024/01/19 06:41:43;;;;;;;4.53;1.73;;;;;;;;;;5112891;27;20066;-64
2024/01/19 06:44:12;;;;;;;5.63;1.52;;;;;;;;;;5122422;27;20084;-63
2024/01/19 06:46:39;;;;;;;3.70;1.08;;;;;;;;;;5111084;27;20051;-64
2024/01/19 06:49:05;;;;;;;2.08;1.23;;;;;;;;;;5115796;27;20035;-64
2024/01/19 06:51:32;;;;;;;6.28;1.75;;;;;;;;;;5110950;27;20106;-64
2024/01/19 06:53:58;;;;;;;7.75;1.48;;;;;;;;;;5119602;27;20037;-64
2024/01/19 06:56:24;;;;;;;2.65;1.08;;;;;;;;;;5119613;27;20061;-64
2024/01/19 06:58:51;;;;;;;3.75;2.40;;;;;;;;;;5122671;27;20039;-64
2024/01/19 07:01:18;;;;;;;6.05;1.45;;;;;;;;;;5103659;28;20139;-65
2024/01/19 07:03:44;;;;;;;6.25;1.60;;;;;;;;;;5122859;27;20035;-64
2024/01/19 07:06:10;;;;;;;11.93;2.15;;;;;;;;;;5124864;27;20061;-64
2024/01/19 07:08:36;;;;;;;3.88;1.50;;;;;;;;;;5119395;28;20046;-64
2024/01/19 07:11:02;;;;;;;3.80;1.60;;;;;;;;;;5123235;27;20152;-64
2024/01/19 07:13:29;;;;;;;3.05;1.33;;;;;;;;;;5101366;28;20042;-64
2024/01/19 07:15:55;;;;;;;5.90;1.67;;;;;;;;;;5120781;28;20043;-64
2024/01/19 07:18:21;;;;;;;4.82;1.70;;;;;;;;;;5120199;28;20112;-64
2024/01/19 07:20:47;;;;;;;3.25;1.60;;;;;;;;;;5120968;28;20069;-65
2024/01/19 07:23:13;;;;;;;9.05;3.15;;;;;;;;;;5122333;28;20035;-64
2024/01/19 07:25:39;;;;;;;9.68;2.15;;;;;;;;;;5116094;28;20123;-64
2024/01/19 07:28:06;;;;;;;8.00;1.67;;;;;;;;;;5121433;28;20043;-64
2024/01/19 07:30:32;;;;;;;5.13;2.45;;;;;;;;;;5116431;28;20131;-64
2024/01/19 07:32:58;;;;;;;7.90;2.00;;;;;;;;;;5114010;28;20047;-64
2024/01/19 07:35:24;;;;;;;8.93;1.95;;;;;;;;;;5115902;28;20035;-63
2024/01/19 07:37:50;;;;;;;3.42;1.75;;;;;;;;;;5118086;28;20061;-64
2024/01/19 07:40:17;;;;;;;9.95;2.70;;;;;;;;;;5117999;28;20047;-64
2024/01/19 07:42:43;;;;;;;2.63;1.52;;;;;;;;;;5115762;28;20488;-64
2024/01/19 07:45:09;;;;;;;4.30;1.92;;;;;;;;;;5122550;28;20043;-64
2024/01/19 07:47:35;;;;;;;4.50;1.75;;;;;;;;;;5096355;28;20046;-64
2024/01/19 07:50:04;;;;;;;5.90;1.80;;;;;;;;;;5116336;28;20089;-63
2024/01/19 07:52:31;;;;;;;4.22;1.88;;;;;;;;;;5104459;28;20097;-64
2024/01/19 07:54:57;;;;;;;4.00;1.95;;;;;;;;;;5123517;28;20031;-64
2024/01/19 07:57:23;;;;;;;4.93;2.28;;;;;;;;;;5114363;28;20055;-64
2024/01/19 07:59:49;;;;;;;5.70;1.65;;;;;;;;;;5117896;28;20053;-64
2024/01/19 08:02:15;;;;;;;8.55;2.38;;;;;;;;;;5121669;28;20122;-64
2024/01/19 08:04:41;;;;;;;4.10;2.05;;;;;;;;;;5123085;28;20039;-64
2024/01/19 08:07:07;;;;;;;5.97;2.33;;;;;;;;;;5108747;28;20075;-64
2024/01/19 08:09:33;;;;;;;4.43;1.73;;;;;;;;;;5123962;28;20043;-64
2024/01/19 08:11:59;;;;;;;9.88;2.83;;;;;;;;;;5124303;28;20047;-64
2024/01/19 08:14:27;;;;;;;5.60;2.17;;;;;;;;;;5120848;28;20031;-64
2024/01/19 08:16:53;;;;;;;5.97;2.28;;;;;;;;;;5118961;27;20035;-63
2024/01/19 08:19:19;;;;;;;4.05;1.60;;;;;;;;;;5121414;27;20043;-63
2024/01/19 08:21:46;;;;;;;6.10;2.10;;;;;;;;;;5126032;27;20049;-64
2024/01/19 08:24:12;;;;;;;6.45;2.20;;;;;;;;;;5120289;27;20043;-63
2024/01/19 08:26:38;;;;;;;5.35;2.42;;;;;;;;;;5124633;27;20065;-62
2024/01/19 08:29:05;;;;;;;5.35;1.65;;;;;;;;;;5090208;27;20043;-63
2024/01/19 08:31:31;;;;;;;5.03;2.22;;;;;;;;;;5124510;27;20229;-63
2024/01/19 08:33:57;;;;;;;6.20;2.35;;;;;;;;;;5125753;27;20046;-63
2024/01/19 08:36:26;;;;;;;4.50;1.98;;;;;;;;;;5110227;27;20031;-63
2024/01/19 08:38:53;;;;;;;2.53;1.55;;;;;;;;;;5124695;27;20074;-63
2024/01/19 08:41:19;;;;;;;9.00;2.22;;;;;;;;;;5126783;27;20042;-63
2024/01/19 08:43:45;;;;;;;4.65;2.20;;;;;;;;;;5117477;27;20039;-64
2024/01/19 08:46:11;;;;;;;9.00;3.20;;;;;;;;;;5123812;27;20047;-64
2024/01/19 08:48:37;;;;;;;5.18;1.52;;;;;;;;;;5123866;27;20051;-63
2024/01/19 08:51:03;;;;;;;7.82;1.63;;;;;;;;;;5116033;27;20130;-63
2024/01/19 08:53:30;;;;;;;8.10;2.08;;;;;;;;;;5094050;28;20063;-63
2024/01/19 08:55:56;;;;;;;9.43;2.25;;;;;;;;;;5126192;27;20417;-63
2024/01/19 08:58:22;;;;;;;5.20;1.63;;;;;;;;;;5119971;27;20039;-63
2024/01/19 09:00:48;;;;;;;8.82;2.45;;;;;;;;;;5125692;27;20095;-63
2024/01/19 09:03:15;;;;;;;4.78;2.05;;;;;;;;;;5124061;27;20047;-64
2024/01/19 09:05:41;;;;;;;4.25;1.90;;;;;;;;;;5128787;27;20050;-64
2024/01/19 09:08:07;;;;;;;4.28;1.75;;;;;;;;;;5119676;27;20065;-63
2024/01/19 09:10:34;;;;;;;4.25;1.75;;;;;;;;;;5126993;27;20074;-64
2024/01/19 09:13:00;;;;;;;7.70;2.50;;;;;;;;;;5119329;27;20121;-63
2024/01/19 09:15:26;;;;;;;8.52;2.38;;;;;;;;;;5122598;27;20032;-63
2024/01/19 09:17:52;;;;;;;7.80;2.85;;;;;;;;;;5123562;27;20501;-64
2024/01/19 09:20:18;;;;;;;7.00;2.63;;;;;;;;;;5103502;28;20051;-64
2024/01/19 09:22:44;;;;;;;8.30;2.03;;;;;;;;;;5117815;27;20065;-64
2024/01/19 09:25:12;;;;;;;8.95;2.45;;;;;;;;;;5126546;27;20575;-64
2024/01/19 09:27:40;;;;;;;3.42;1.67;;;;;;;;;;5117422;27;20043;-64
2024/01/19 09:30:06;;;;;;;6.53;2.05;;;;;;;;;;5125265;27;20648;-63
2024/01/19 09:32:32;;;;;;;7.25;2.67;;;;;;;;;;5121015;27;20145;-64
2024/01/19 09:34:58;;;;;;;5.68;2.28;;;;;;;;;;5118228;27;20122;-64
2024/01/19 09:37:24;;;;;;;12.88;3.70;;;;;;;;;;5116712;27;20476;-64
2024/01/19 09:39:51;;;;;;;5.70;2.35;;;;;;;;;;5085382;27;20059;-64
2024/01/19 09:42:17;;;;;;;3.72;2.10;;;;;;;;;;5119420;27;20039;-64
2024/01/19 09:44:48;;;;;;;3.40;1.90;;;;;;;;;;5111284;27;20126;-64
2024/01/19 09:47:20;;;;;;;4.03;1.88;;;;;;;;;;5115914;27;20485;-63
2024/01/19 09:49:46;;;;;;;12.50;2.13;;;;;;;;;;5087427;27;20050;-64
2024/01/19 09:52:15;;;;;;;6.80;2.67;;;;;;;;;;5124943;27;20046;-63
2024/01/19 09:54:42;;;;;;;5.00;2.08;;;;;;;;;;5104367;27;20940;-64
2024/01/19 09:57:08;;;;;;;4.00;2.38;;;;;;;;;;5119548;27;20550;-64
2024/01/19 09:59:34;;;;;;;2.83;1.63;;;;;;;;;;5120689;27;20593;-63
2024/01/19 10:02:01;;;;;;;12.48;3.20;;;;;;;;;;5114652;27;20039;-64
2024/01/19 10:04:29;;;;;;;9.13;2.03;;;;;;;;;;5115383;27;20081;-63
2024/01/19 10:06:55;;;;;;;4.10;1.73;;;;;;;;;;5118577;27;20087;-64
2024/01/19 10:09:22;;;;;;;7.22;2.28;;;;;;;;;;5121503;27;20049;-64
2024/01/19 10:11:52;;;;;;;6.68;1.95;;;;;;;;;;5092524;28;20119;-64
2024/01/19 10:14:19;;;;;;;6.32;1.95;;;;;;;;;;5113698;27;20035;-64
2024/01/19 10:16:45;;;;;;;5.20;2.10;;;;;;;;;;5105773;27;20054;-63
2024/01/19 10:19:16;;;;;;;6.53;2.63;;;;;;;;;;5116457;27;20074;-63
2024/01/19 10:21:43;;;;;;;4.95;2.17;;;;;;;;;;5090063;27;20126;-64
2024/01/19 10:24:09;;;;;;;5.97;1.85;;;;;;;;;;5116514;27;20043;-64
2024/01/19 10:26:39;;;;;;;4.70;1.60;;;;;;;;;;5123351;27;20526;-64
2024/01/19 10:29:15;;;;;;;9.70;1.92;;;14.10;84.70;;;;;;5114408;27;20631;-64
2024/01/19 10:31:42;;;;;;;7.18;2.10;;;;;;;;;;5122020;27;20047;-64
2024/01/19 10:34:20;;;;;;;5.53;2.08;;;;;;;;;;5114382;27;20058;-64
2024/01/19 10:36:46;;;;;;;6.37;2.10;;;;;;;;;;5103901;28;20043;-63
2024/01/19 10:39:19;;;;;;;5.53;1.88;;;;;;;;;;5124490;27;20504;-63
2024/01/19 10:41:45;;;;;;;;;;;;;;;;;;5119077;27;20042;-64
2024/01/19 10:44:12;;;;;;;3.97;1.88;;;;;;;;;;5117964;27;20001;-63
2024/01/19 10:46:38;;;;;;;9.70;1.98;;;5.40;99.90;;;;;;5119866;27;20039;-63
2024/01/19 10:49:05;;;;;;;4.07;1.63;;;;;;;;;;5124522;27;20031;-63
2024/01/19 10:51:34;;;;;;;12.38;2.08;;;;;;;;;;5122774;27;20058;-64
2024/01/19 10:54:05;;;;;;;8.13;2.08;;;;;;;;;;5108049;27;20039;-63
2024/01/19 10:56:31;;;;;;;4.68;1.95;;;;;;;;;;5127541;27;20042;-64
2024/01/19 10:59:11;;;;;;;2.30;1.42;;;6.50;99.90;;;;;;5121749;27;20142;-64
2024/01/19 11:01:37;;;;;;;6.18;2.67;;;7.40;99.90;;;;;;5123908;27;20127;-63
2024/01/19 11:04:04;;;;;;;4.38;1.55;;;;;;;;;;5125887;27;20046;-63
2024/01/19 11:06:30;;;;;;;3.83;1.75;;;7.60;99.90;;;;;;5118529;27;20054;-64
2024/01/19 11:08:56;;;;;;;7.10;1.92;;;8.00;99.90;;;;;;5123079;27;20049;-64
2024/01/19 11:11:26;;;;;;;5.72;1.75;;;8.20;99.90;;;;;;5095867;28;20043;-64
2024/01/19 11:13:57;;;;;;;7.30;2.17;;;8.50;99.90;;;;;;5119578;28;20036;-64
2024/01/19 11:16:25;;;;;;;8.20;2.42;;;8.70;99.90;;;;;;5123101;28;20080;-64
2024/01/19 11:18:52;;;;;;;4.88;2.15;;;8.90;99.90;;;;;;5123356;28;20039;-64
2024/01/19 11:21:19;;;;;;;6.85;2.75;;;9.30;99.90;;;;;;5123523;28;20118;-64
2024/01/19 11:23:46;;;;;;;4.60;1.45;;;9.90;99.90;;;;;;5109467;28;20051;-64
2024/01/19 11:26:21;;;;;;;2.55;1.60;;;;;;;;;;5125607;28;20035;-64
2024/01/19 11:28:57;;;;;;;4.85;1.35;;;11.00;99.90;;;;;;5122701;28;20043;-65
2024/01/19 11:31:25;;;;;;;5.03;1.60;;;;;;;;;;5105905;28;20038;-66
2024/01/19 11:33:53;;;;;;;6.53;2.08;;;13.40;99.90;;;;;;5116285;28;20058;-65
2024/01/19 11:36:40;;;;;;;5.70;1.65;;;14.80;98.70;;;;;;5123937;27;20039;-64
2024/01/19 11:39:13;;;;;;;4.55;1.40;;;14.80;98.60;;;;;;5123896;28;20040;-65
2024/01/19 11:41:40;;;;;;;14.63;2.90;;;14.90;98.80;;;;;;5119678;27;20138;-65
2024/01/19 11:44:07;;;;;;;7.15;1.83;;;15.00;98.90;;;;;;5120880;28;20093;-64
2024/01/19 11:46:47;;;;;;;4.85;1.45;;;15.30;98.60;;;;;;5115709;27;20051;-65
2024/01/19 11:49:36;;;;;;;4.20;1.55;;;;;;;;;;5095750;28;20035;-64
2024/01/19 11:52:20;;;;;;;6.57;2.22;;;;;;;;;;5120435;27;20492;-65
2024/01/19 11:54:46;;;;;;;4.47;1.80;;;;;;;;;;5118060;27;20032;-65
2024/01/19 11:57:24;;;;;;;6.63;1.80;;;16.00;97.90;;;;;;5126129;27;20092;-65
2024/01/19 11:59:50;;;;;;;4.78;1.70;;;20.40;91.60;;;;;;5125920;27;20495;-65
2024/01/19 12:02:23;;;;;;;8.00;1.95;;;21.10;90.40;;;;;;5122544;27;20184;-65
2024/01/19 12:04:49;;;;;;;5.28;1.48;;;;;;;;;;5124464;27;20646;-65
2024/01/19 12:07:17;;;;;;;5.55;2.00;;;;;;;;;;5107826;27;20042;-65
2024/01/19 12:09:43;;;;;;;4.20;1.70;;;;;;;;;;5128716;27;20071;-65
2024/01/19 12:12:10;;;;;;;6.35;1.45;;;;;;;;;;5128571;27;20038;-66
2024/01/19 12:14:36;;;;;;;3.80;1.83;;;;;;;;;;5127278;27;20192;-66
2024/01/19 12:17:02;;;;;;;5.47;1.77;;;;;;;;;;5125791;27;20122;-66
2024/01/19 12:19:28;;;;;;;4.05;1.58;;;;;;;;;;5125937;27;20039;-63
2024/01/19 12:21:57;;;;;;;3.42;1.13;;;;;;;;;;5123997;27;20031;-64
2024/01/19 12:24:24;;;;;;;4.95;1.45;;;;;;;;;;5128608;27;20118;-64
2024/01/19 12:26:51;;;;;;;5.97;1.52;;;;;;;;;;5128872;27;20043;-64
2024/01/19 12:29:35;;;;;;;3.28;1.40;;;;;;;;;;5127336;27;20482;-64
2024/01/19 12:32:12;;;;;;;5.82;1.63;;;;;;;;;;5129041;27;20083;-64
2024/01/19 12:34:38;;;;;;;4.43;1.38;;;;;;;;;;5127775;27;20516;-64
2024/01/19 12:37:05;;;;;;;5.45;2.20;;;;;;;;;;5130175;27;20069;-64
2024/01/19 12:39:31;;;;;;;4.18;1.63;;;;;;;;;;5129905;27;20035;-64
2024/01/19 12:41:58;;;;;;;2.85;1.25;;;;;;;;;;5129709;27;20042;-64
2024/01/19 12:44:24;;;;;;;5.00;1.33;;;;;;;;;;5125000;27;20053;-64
2024/01/19 12:46:50;;;;;;;3.95;1.20;;;;;;;;;;5121621;27;20039;-65
2024/01/19 12:49:17;;;;;;;8.13;1.63;;;;;;;;;;5117168;27;20120;-65
2024/01/19 12:51:44;;;;;;;3.47;1.40;;;;;;;;;;5123762;27;20490;-65
2024/01/19 12:54:14;;;;;;;5.40;1.27;;;;;;;;;;5081801;27;20054;-65
2024/01/19 12:56:41;;;;;;;2.22;1.30;;;;;;;;;;5024675;28;20117;-64
2024/01/19 12:59:08;;;;;;;3.75;1.38;;;;;;;;;;5085430;28;20573;-65
2024/01/19 13:01:37;;;;;;;4.55;1.33;;;;;;;;;;5081475;28;20059;-65
2024/01/19 13:04:03;;;;;;;4.20;1.50;;;;;;;;;;5079770;28;20079;-65
2024/01/19 13:06:29;;;;;;;2.17;1.02;;;;;;;;;;5078810;28;20493;-65
2024/01/19 13:08:56;;;;;;;2.85;1.13;;;;;;;;;;5081838;28;20044;-65
2024/01/19 13:11:25;;;;;;;3.35;1.45;;;;;;;;;;5082560;28;20044;-65
2024/01/19 13:14:03;;;;;;;3.15;1.30;;;;;;;;;;5057603;28;20047;-65
2024/01/19 13:16:30;;;;;;;2.95;1.10;;;;;;;;;;5067087;28;20040;-65
2024/01/19 13:19:03;;;;;;;4.97;1.60;;;;;;;;;;5076809;28;20055;-65
2024/01/19 13:21:30;;;;;;;4.15;1.50;;;;;;;;;;5051034;28;20071;-65
2024/01/19 13:23:59;;;;;;;3.70;1.13;;;;;;;;;;5057799;28;20032;-65
2024/01/19 13:26:25;;;;;;;4.18;1.52;;;;;;;;;;5062387;28;20041;-65
2024/01/19 13:28:52;;;;;;;6.40;1.60;;;;;;;;;;5063041;28;20599;-65
2024/01/19 13:31:18;;;;;;;3.92;1.63;;;21.80;87.00;;;;;;5066641;28;20044;-65
2024/01/19 13:33:45;;;;;;;3.15;1.70;;;23.50;65.50;;;;;;5063466;28;20045;-64
2024/01/19 13:36:18;;;;;;;4.35;1.38;;;22.90;66.50;;;;;;5063569;28;20044;-63
2024/01/19 13:38:45;;;;;;;5.47;1.77;;;22.50;67.30;;;;;;5057027;28;20097;-64
2024/01/19 13:41:12;;;;;;;3.08;1.55;;;22.10;68.40;;;;;;5059707;28;20448;-65
2024/01/19 13:43:44;;;;;;;5.93;1.48;;;21.90;69.30;;;;;;5061922;28;20505;-65
2024/01/19 13:46:13;;;;;;;3.22;1.60;;;22.00;69.30;;;;;;5065676;28;20033;-65
2024/01/19 13:48:42;;;;;;;4.88;1.75;;;22.60;69.30;;;;;;5054870;28;20037;-65
2024/01/19 13:51:09;;;;;;;4.53;1.92;;;23.20;68.30;;;;;;5062841;28;20044;-65
2024/01/19 13:53:35;;;;;;;3.65;1.52;;;23.70;66.80;;;;;;5054718;28;20493;-65
2024/01/19 13:56:00;;;;;;;3.90;1.88;;;24.20;65.70;;;;;;5060072;28;20051;-65
2024/01/19 13:58:26;;;;;;;4.07;1.60;;;24.70;64.60;;;;;;5060784;28;20049;-65
2024/01/19 14:00:52;;;;;;;3.78;1.63;;;25.00;63.20;;;;;;5066135;28;20533;-65
2024/01/19 14:03:19;;;;;;;5.28;2.08;;;25.20;62.10;;;;;;5054175;28;20039;-65
2024/01/19 14:05:47;;;;;;;7.50;1.70;;;25.30;61.40;;;;;;5066758;28;20098;-65
2024/01/19 14:08:16;;;;;;;5.28;1.83;;;25.00;61.00;;;;;;5068359;28;20055;-65
2024/01/19 14:10:46;;;;;;;5.22;2.17;;;24.20;61.10;;;;;;5066193;28;20041;-64
2024/01/19 14:13:13;;;;;;;6.75;2.35;;;23.40;61.90;;;;;;5059382;28;21494;-65
2024/01/19 14:15:39;;;;;;;4.07;2.10;;;22.60;62.70;;;;;;5067222;28;20043;-64
2024/01/19 14:18:05;;;;;;;4.32;2.03;;;21.80;63.30;;;;;;5053147;28;20044;-64
2024/01/19 14:20:31;;;;;;;3.70;1.95;;;21.10;64.00;;;;;;5067459;28;20179;-65
2024/01/19 14:22:58;;;;;;;2.30;1.40;;;;;;;;;;5032048;28;20053;-63
2024/01/19 14:25:25;;;;;;;5.43;1.88;;;;;;;;;;5065041;28;20047;-63